createdAt,value
2023-03-13T00:00:01.974Z,6.20
2023-03-13T00:01:57.465Z,5.23
2023-03-13T00:03:53.039Z,7.90
2023-03-13T00:05:48.149Z,6.97
2023-03-13T00:07:43.134Z,5.57
2023-03-13T00:09:41.178Z,6.03
2023-03-13T00:11:36.451Z,4.57
2023-03-13T00:13:31.853Z,7.20
2023-03-13T00:15:26.754Z,7.23
2023-03-13T00:17:22.025Z,6.57
2023-03-13T00:19:18.473Z,6.90
2023-03-13T00:21:13.702Z,7.07
2023-03-13T00:23:08.999Z,4.40
2023-03-13T00:25:06.759Z,6.97
2023-03-13T00:27:03.413Z,6.87
2023-03-13T00:28:58.953Z,6.20
2023-03-13T00:30:54.440Z,5.60
2023-03-13T00:32:49.946Z,8.03
2023-03-13T00:34:45.247Z,8.70
2023-03-13T00:36:40.463Z,8.60
2023-03-13T00:38:36.340Z,7.47
2023-03-13T00:40:33.883Z,8.20
2023-03-13T00:42:28.797Z,8.70
2023-03-13T00:44:24.122Z,7.07
2023-03-13T00:46:21.676Z,8.43
2023-03-13T00:48:16.677Z,8.80
2023-03-13T00:50:13.140Z,8.50
2023-03-13T00:52:08.643Z,8.53
2023-03-13T00:54:05.099Z,7.00
2023-03-13T00:56:04.302Z,8.73
2023-03-13T00:57:59.568Z,7.63
2023-03-13T00:59:54.521Z,9.10
2023-03-13T01:01:50.530Z,9.23
2023-03-13T01:03:47.504Z,8.67
2023-03-13T01:05:42.905Z,8.20
2023-03-13T01:07:38.582Z,6.53
2023-03-13T01:09:33.901Z,8.67
2023-03-13T01:11:34.906Z,8.17
2023-03-13T01:13:30.731Z,4.97
2023-03-13T01:15:25.852Z,8.37
2023-03-13T01:17:21.164Z,9.00
2023-03-13T01:19:18.291Z,9.17
2023-03-13T01:21:14.360Z,9.67
2023-03-13T01:23:09.322Z,8.70
2023-03-13T01:25:04.274Z,9.03
2023-03-13T01:27:02.183Z,7.20
2023-03-13T01:28:57.913Z,7.93
2023-03-13T01:30:53.606Z,9.27
2023-03-13T01:32:48.649Z,9.67
2023-03-13T01:34:43.971Z,9.93
2023-03-13T01:36:39.908Z,7.17
2023-03-13T01:38:35.237Z,9.23
2023-03-13T01:40:30.293Z,8.13
2023-03-13T01:42:27.978Z,10.20
2023-03-13T01:44:25.813Z,10.37
2023-03-13T01:46:24.964Z,10.00
2023-03-13T01:48:20.575Z,9.17
2023-03-13T01:50:16.056Z,10.07
2023-03-13T01:52:15.632Z,9.47
2023-03-13T01:54:14.861Z,9.17
2023-03-13T01:56:14.681Z,10.03
2023-03-13T01:58:12.470Z,10.17
2023-03-13T02:00:13.848Z,9.50
2023-03-13T02:02:09.835Z,8.77
2023-03-13T02:04:05.191Z,9.30
2023-03-13T02:06:03.288Z,6.53
2023-03-13T02:08:01.131Z,9.17
2023-03-13T02:09:59.424Z,8.77
2023-03-13T02:12:00.046Z,9.53
2023-03-13T02:14:01.087Z,5.13
2023-03-13T02:15:56.925Z,8.53
2023-03-13T02:17:53.091Z,8.17
2023-03-13T02:19:51.888Z,8.90
2023-03-13T02:21:53.088Z,7.27
2023-03-13T02:23:55.390Z,7.57
2023-03-13T02:25:54.904Z,6.40
2023-03-13T02:27:51.008Z,7.07
2023-03-13T02:29:46.538Z,5.53
2023-03-13T02:31:42.563Z,6.77
2023-03-13T02:33:41.760Z,7.57
2023-03-13T02:35:38.923Z,6.10
2023-03-13T02:37:35.529Z,6.77
2023-03-13T02:39:33.869Z,6.97
2023-03-13T02:41:32.473Z,7.20
2023-03-13T02:43:32.159Z,7.20
2023-03-13T02:45:27.276Z,6.27
2023-03-13T02:47:24.072Z,7.63
2023-03-13T02:49:28.056Z,5.07
2023-03-13T02:51:31.437Z,6.13
2023-03-13T02:53:26.401Z,5.90
2023-03-13T02:55:27.173Z,5.90
2023-03-13T02:57:24.786Z,6.23
2023-03-13T02:59:20.671Z,5.17
2023-03-13T03:01:15.898Z,4.03
2023-03-13T03:03:10.971Z,4.00
2023-03-13T03:05:06.708Z,4.93
2023-03-13T03:07:01.899Z,4.03
2023-03-13T03:08:57.208Z,4.67
2023-03-13T03:10:52.257Z,5.00
2023-03-13T03:12:50.203Z,5.07
2023-03-13T03:14:45.813Z,2.90
2023-03-13T03:16:41.629Z,3.67
2023-03-13T03:18:37.144Z,3.93
2023-03-13T03:20:32.755Z,3.40
2023-03-13T03:22:27.752Z,3.93
2023-03-13T03:24:23.181Z,3.70
2023-03-13T03:26:18.699Z,5.67
2023-03-13T03:28:16.301Z,4.27
2023-03-13T03:30:13.602Z,3.70
2023-03-13T03:32:09.102Z,3.47
2023-03-13T03:34:04.312Z,3.30
2023-03-13T03:36:02.763Z,3.63
2023-03-13T03:37:57.838Z,3.33
2023-03-13T03:39:53.100Z,4.13
2023-03-13T03:41:48.037Z,4.03
2023-03-13T03:43:47.360Z,4.13
2023-03-13T03:45:42.333Z,2.93
2023-03-13T03:47:37.602Z,3.53
2023-03-13T03:49:32.515Z,3.87
2023-03-13T03:51:27.956Z,2.80
2023-03-13T03:53:23.039Z,3.40
2023-03-13T03:55:18.132Z,3.63
2023-03-13T03:57:13.471Z,3.97
2023-03-13T03:59:11.100Z,4.53
2023-03-13T04:01:06.925Z,2.57
2023-03-13T04:03:02.833Z,3.70
2023-03-13T04:04:57.884Z,3.40
2023-03-13T04:06:53.249Z,3.83
2023-03-13T04:08:48.197Z,3.57
2023-03-13T04:10:43.824Z,2.00
2023-03-13T04:12:38.763Z,3.30
2023-03-13T04:14:36.643Z,4.57
2023-03-13T04:16:31.700Z,4.30
2023-03-13T04:18:27.041Z,3.23
2023-03-13T04:20:22.415Z,4.33
2023-03-13T04:22:17.664Z,4.00
2023-03-13T04:24:12.784Z,4.17
2023-03-13T04:26:07.937Z,5.00
2023-03-13T04:28:03.250Z,3.23
2023-03-13T04:30:00.786Z,3.90
2023-03-13T04:31:55.688Z,3.23
2023-03-13T04:33:51.026Z,3.80
2023-03-13T04:35:47.136Z,3.97
2023-03-13T04:37:42.454Z,3.27
2023-03-13T04:39:37.443Z,4.07
2023-03-13T04:41:32.441Z,3.13
2023-03-13T04:43:27.735Z,4.70
2023-03-13T04:45:25.326Z,4.03
2023-03-13T04:47:20.632Z,4.20
2023-03-13T04:49:16.400Z,2.90
2023-03-13T04:51:11.381Z,3.97
2023-03-13T04:53:06.952Z,4.33
2023-03-13T04:55:02.040Z,3.93
2023-03-13T04:56:57.010Z,2.97
2023-03-13T04:58:52.480Z,4.03
2023-03-13T05:00:50.117Z,3.70
2023-03-13T05:02:45.079Z,4.20
2023-03-13T05:04:40.718Z,2.77
2023-03-13T05:06:35.939Z,3.63
2023-03-13T05:08:30.873Z,2.70
2023-03-13T05:10:26.118Z,3.87
2023-03-13T05:12:21.184Z,3.03
2023-03-13T05:14:16.253Z,2.93
2023-03-13T05:16:14.254Z,3.53
2023-03-13T05:18:09.590Z,3.80
2023-03-13T05:20:07.859Z,3.30
2023-03-13T05:22:03.481Z,4.23
2023-03-13T05:23:58.424Z,3.57
2023-03-13T05:25:53.708Z,2.20
2023-03-13T05:27:48.815Z,4.17
2023-03-13T05:29:43.886Z,3.87
2023-03-13T05:31:41.815Z,3.50
2023-03-13T05:33:36.903Z,4.30
2023-03-13T05:35:32.059Z,4.30
2023-03-13T05:37:27.483Z,4.30
2023-03-13T05:39:22.748Z,4.20
2023-03-13T05:41:18.083Z,4.07
2023-03-13T05:43:13.148Z,4.70
2023-03-13T05:45:09.442Z,3.87
2023-03-13T05:47:07.716Z,3.60
2023-03-13T05:49:02.729Z,3.90
2023-03-13T05:50:57.743Z,3.70
2023-03-13T05:52:53.379Z,4.03
2023-03-13T05:54:48.289Z,4.43
2023-03-13T05:56:44.921Z,3.27
2023-03-13T05:58:40.171Z,3.53
2023-03-13T06:00:35.519Z,3.30
2023-03-13T06:02:33.103Z,4.20
2023-03-13T06:04:28.548Z,3.87
2023-03-13T06:06:23.592Z,3.37
2023-03-13T06:08:20.803Z,4.20
2023-03-13T06:10:16.786Z,4.73
2023-03-13T06:12:13.551Z,4.73
2023-03-13T06:14:08.652Z,2.83
2023-03-13T06:16:03.739Z,4.17
2023-03-13T06:18:01.615Z,4.50
2023-03-13T06:19:56.655Z,4.33
2023-03-13T06:21:51.937Z,4.80
2023-03-13T06:23:47.016Z,4.37
2023-03-13T06:25:42.329Z,4.63
2023-03-13T06:27:37.266Z,4.77
2023-03-13T06:29:32.573Z,3.83
2023-03-13T06:31:27.594Z,4.00
2023-03-13T06:33:26.349Z,3.40
2023-03-13T06:35:21.457Z,4.53
2023-03-13T06:37:16.844Z,4.50
2023-03-13T06:39:12.727Z,3.97
2023-03-13T06:41:08.171Z,4.00
2023-03-13T06:43:03.180Z,4.80
2023-03-13T06:44:58.463Z,3.97
2023-03-13T06:46:53.631Z,4.00
2023-03-13T06:48:53.641Z,3.80
2023-03-13T06:50:48.824Z,3.47
2023-03-13T06:52:44.523Z,2.40
2023-03-13T06:54:39.833Z,3.90
2023-03-13T06:56:35.455Z,4.60
2023-03-13T06:58:32.867Z,3.73
2023-03-13T07:00:28.759Z,4.13
2023-03-13T07:02:24.632Z,3.57
2023-03-13T07:04:27.708Z,4.30
2023-03-13T07:06:22.774Z,3.77
2023-03-13T07:08:19.546Z,3.70
2023-03-13T07:10:14.899Z,5.40
2023-03-13T07:12:10.912Z,3.87
2023-03-13T07:14:16.452Z,3.40
2023-03-13T07:16:14.834Z,5.30
2023-03-13T07:18:09.935Z,3.47
2023-03-13T07:20:10.715Z,3.10
2023-03-13T07:22:06.064Z,4.67
2023-03-13T07:24:01.674Z,4.20
2023-03-13T07:25:57.851Z,3.87
2023-03-13T07:27:56.903Z,5.03
2023-03-13T07:29:52.892Z,3.73
2023-03-13T07:31:47.939Z,4.80
2023-03-13T07:33:44.859Z,4.83
2023-03-13T07:35:42.494Z,3.93
2023-03-13T07:37:37.857Z,4.53
2023-03-13T07:39:32.854Z,5.03
2023-03-13T07:41:28.217Z,3.10
2023-03-13T07:43:24.082Z,5.43
2023-03-13T07:45:19.480Z,5.13
2023-03-13T07:47:14.555Z,4.67
2023-03-13T07:49:10.183Z,4.93
2023-03-13T07:51:09.973Z,4.87
2023-03-13T07:53:06.974Z,4.30
2023-03-13T07:55:02.142Z,2.53
2023-03-13T07:57:04.563Z,4.50
2023-03-13T07:58:59.505Z,4.33
2023-03-13T08:00:55.203Z,4.57
2023-03-13T08:02:50.160Z,3.33
2023-03-13T08:04:45.627Z,5.20
2023-03-13T08:06:43.847Z,2.43
2023-03-13T08:08:39.541Z,1.57
2023-03-13T08:10:34.565Z,3.93
2023-03-13T08:12:29.594Z,3.17
2023-03-13T08:14:25.760Z,3.50
2023-03-13T08:16:24.175Z,3.17
2023-03-13T08:18:19.169Z,3.60
2023-03-13T08:20:15.085Z,3.77
2023-03-13T08:22:12.648Z,4.63
2023-03-13T08:24:10.707Z,3.00
2023-03-13T08:26:08.393Z,4.33
2023-03-13T08:28:03.431Z,2.53
2023-03-13T08:29:58.689Z,3.20
2023-03-13T08:31:54.357Z,4.60
2023-03-13T08:33:50.824Z,3.00
2023-03-13T08:35:45.810Z,4.10
2023-03-13T08:37:43.477Z,2.63
2023-03-13T08:39:38.980Z,3.03
2023-03-13T08:41:37.553Z,3.40
2023-03-13T08:43:32.488Z,2.53
2023-03-13T08:45:27.920Z,2.03
2023-03-13T08:47:22.874Z,2.90
2023-03-13T08:49:18.218Z,2.63
2023-03-13T08:51:18.049Z,2.23
2023-03-13T08:53:15.698Z,4.20
2023-03-13T08:55:12.047Z,1.73
2023-03-13T08:57:07.226Z,2.27
2023-03-13T08:59:04.513Z,3.30
2023-03-13T09:01:04.717Z,2.93
2023-03-13T09:03:00.363Z,3.13
2023-03-13T09:04:55.827Z,3.70
2023-03-13T09:06:50.893Z,2.83
2023-03-13T09:08:49.136Z,1.83
2023-03-13T09:10:44.547Z,3.23
2023-03-13T09:12:39.607Z,2.27
2023-03-13T09:14:36.689Z,2.83
2023-03-13T09:16:34.962Z,2.97
2023-03-13T09:18:31.006Z,1.60
2023-03-13T09:20:26.187Z,1.80
2023-03-13T09:22:21.488Z,2.37
2023-03-13T09:24:20.220Z,2.93
2023-03-13T09:26:16.495Z,3.37
2023-03-13T09:28:11.419Z,2.67
2023-03-13T09:30:07.416Z,2.37
2023-03-13T09:32:03.912Z,3.10
2023-03-13T09:33:59.367Z,2.93
2023-03-13T09:35:54.919Z,3.30
2023-03-13T09:37:50.361Z,2.93
2023-03-13T09:39:48.557Z,1.57
2023-03-13T09:41:51.262Z,2.37
2023-03-13T09:43:51.017Z,2.47
2023-03-13T09:45:49.682Z,3.33
2023-03-13T09:47:49.740Z,1.33
2023-03-13T09:49:49.211Z,3.30
2023-03-13T09:51:49.599Z,2.37
2023-03-13T09:53:48.102Z,2.87
2023-03-13T09:55:48.401Z,2.50
2023-03-13T09:57:49.899Z,2.50
2023-03-13T09:59:51.374Z,1.40
2023-03-13T10:01:47.949Z,2.20
2023-03-13T10:03:48.569Z,2.63
2023-03-13T10:05:50.878Z,3.10
2023-03-13T10:07:46.839Z,2.63
2023-03-13T10:09:43.223Z,2.70
2023-03-13T10:11:50.110Z,2.23
2023-03-13T10:13:50.499Z,2.00
2023-03-13T10:15:51.681Z,2.07
2023-03-13T10:17:47.498Z,3.47
2023-03-13T10:19:45.910Z,2.30
2023-03-13T10:21:43.062Z,2.97
2023-03-13T10:23:43.470Z,2.20
2023-03-13T10:25:41.089Z,2.30
2023-03-13T10:27:51.465Z,1.30
2023-03-13T10:29:46.656Z,2.43
2023-03-13T10:31:42.472Z,2.47
2023-03-13T10:33:39.829Z,1.43
2023-03-13T10:35:38.106Z,1.67
2023-03-13T10:37:34.886Z,2.57
2023-03-13T10:39:32.034Z,1.87
2023-03-13T10:41:31.967Z,1.60
2023-03-13T10:43:31.766Z,2.27
2023-03-13T10:45:27.194Z,2.30
2023-03-13T10:47:25.528Z,1.50
2023-03-13T10:49:23.187Z,1.20
2023-03-13T10:51:25.070Z,1.43
2023-03-13T10:53:33.984Z,2.10
2023-03-13T10:55:29.857Z,2.30
2023-03-13T10:57:32.475Z,2.37
2023-03-13T10:59:31.188Z,2.67
2023-03-13T11:01:28.804Z,1.83
2023-03-13T11:03:34.566Z,1.27
2023-03-13T11:05:40.863Z,0.83
2023-03-13T11:07:38.285Z,0.83
2023-03-13T11:09:34.049Z,2.20
2023-03-13T11:11:31.154Z,1.50
2023-03-13T11:13:38.339Z,2.00
2023-03-13T11:15:43.651Z,1.20
2023-03-13T11:17:42.709Z,1.80
2023-03-13T11:20:00.868Z,1.20
2023-03-13T11:22:07.653Z,1.00
2023-03-13T11:24:10.672Z,0.70
2023-03-13T11:26:14.910Z,1.07
2023-03-13T11:28:31.592Z,1.60
2023-03-13T11:30:53.334Z,2.00
2023-03-13T11:32:54.227Z,1.17
2023-03-13T11:34:54.521Z,1.30
2023-03-13T11:36:58.622Z,1.47
2023-03-13T11:38:57.170Z,0.60
2023-03-13T11:41:05.340Z,1.37
2023-03-13T11:43:25.735Z,1.10
2023-03-13T11:45:40.357Z,0.70
2023-03-13T11:47:59.520Z,1.00
2023-03-13T11:50:05.252Z,1.33
2023-03-13T11:52:34.060Z,1.03
2023-03-13T11:54:52.909Z,1.30
2023-03-13T11:56:54.335Z,1.10
2023-03-13T11:59:10.420Z,1.20
2023-03-13T12:01:10.709Z,0.93
2023-03-13T12:03:15.693Z,0.80
2023-03-13T12:05:13.689Z,1.30
2023-03-13T12:07:19.371Z,1.07
2023-03-13T12:09:19.153Z,0.90
2023-03-13T12:11:20.771Z,0.70
2023-03-13T12:13:22.044Z,0.90
2023-03-13T12:15:24.929Z,0.80
2023-03-13T12:17:32.639Z,1.00
2023-03-13T12:19:35.849Z,0.90
2023-03-13T12:21:35.201Z,0.60
2023-03-13T12:23:38.775Z,1.10
2023-03-13T12:25:39.360Z,0.70
2023-03-13T12:27:41.041Z,0.90
2023-03-13T12:29:48.859Z,0.80
2023-03-13T12:31:49.153Z,0.80
2023-03-13T12:33:49.490Z,0.70
2023-03-13T12:35:49.905Z,0.70
2023-03-13T12:37:52.998Z,0.70
2023-03-13T12:39:53.840Z,0.93
2023-03-13T12:41:57.528Z,0.80
2023-03-13T12:44:07.683Z,0.90
2023-03-13T12:46:24.574Z,0.67
2023-03-13T12:48:51.958Z,0.93
2023-03-13T12:51:02.823Z,0.77
2023-03-13T12:53:29.006Z,0.70
2023-03-13T12:55:47.198Z,0.90
2023-03-13T12:58:12.360Z,0.70
2023-03-13T13:00:18.452Z,0.90
2023-03-13T13:02:20.379Z,0.90
2023-03-13T13:04:18.163Z,0.87
2023-03-13T13:06:17.768Z,0.80
2023-03-13T13:08:27.523Z,0.70
2023-03-13T13:10:26.299Z,0.70
2023-03-13T13:12:23.166Z,0.87
2023-03-13T13:14:53.660Z,1.00
2023-03-13T13:16:51.718Z,0.68
2023-03-13T13:18:46.661Z,1.00
2023-03-13T13:20:50.421Z,0.47
2023-03-13T13:22:53.133Z,0.98
2023-03-13T13:24:52.856Z,0.90
2023-03-13T13:26:53.933Z,0.82
2023-03-13T13:28:49.281Z,0.85
2023-03-13T13:30:44.448Z,1.13
2023-03-13T13:32:42.535Z,0.80
2023-03-13T13:35:03.405Z,1.27
2023-03-13T13:36:59.093Z,1.20
2023-03-13T13:38:58.463Z,1.30
2023-03-13T13:41:04.317Z,1.13
2023-03-13T13:43:01.410Z,1.00
2023-03-13T13:45:00.831Z,1.10
2023-03-13T13:46:59.531Z,1.00
2023-03-13T13:49:11.105Z,1.10
2023-03-13T13:51:26.414Z,1.20
2023-03-13T13:53:34.764Z,1.00
2023-03-13T13:55:45.565Z,0.85
2023-03-13T13:57:43.673Z,1.10
2023-03-13T13:59:44.892Z,1.00
2023-03-13T14:01:42.270Z,1.10
2023-03-13T14:03:42.869Z,1.33
2023-03-13T14:05:43.864Z,1.05
2023-03-13T14:08:03.282Z,0.75
2023-03-13T14:10:05.916Z,1.00
2023-03-13T14:12:04.332Z,0.80
2023-03-13T14:14:12.520Z,1.15
2023-03-13T14:16:24.959Z,0.90
2023-03-13T14:18:25.562Z,1.20
2023-03-13T14:20:27.318Z,0.90
2023-03-13T14:22:22.803Z,0.85
2023-03-13T14:24:19.416Z,0.90
2023-03-13T14:26:17.986Z,1.30
2023-03-13T14:28:24.257Z,1.30
2023-03-13T14:30:21.911Z,0.80
2023-03-13T14:32:20.660Z,0.70
2023-03-13T14:34:16.377Z,0.90
2023-03-13T14:36:12.427Z,1.08
2023-03-13T14:38:07.761Z,1.25
2023-03-13T14:40:11.644Z,0.80
2023-03-13T14:42:09.284Z,1.10
2023-03-13T14:44:10.020Z,0.90
2023-03-13T14:46:18.526Z,1.20
2023-03-13T14:48:22.186Z,0.98
2023-03-13T14:50:18.029Z,1.13
2023-03-13T14:52:22.943Z,0.80
2023-03-13T14:54:29.411Z,1.20
2023-03-13T14:56:34.627Z,0.98
2023-03-13T14:58:31.984Z,0.90
2023-03-13T15:00:41.186Z,1.30
2023-03-13T15:02:37.566Z,0.87
2023-03-13T15:04:59.663Z,1.15
2023-03-13T15:07:05.101Z,1.17
2023-03-13T15:09:19.916Z,1.15
2023-03-13T15:11:24.898Z,1.20
2023-03-13T15:13:26.514Z,1.25
2023-03-13T15:15:22.917Z,0.80
2023-03-13T15:17:23.862Z,1.27
2023-03-13T15:19:19.364Z,1.40
2023-03-13T15:21:32.737Z,1.40
2023-03-13T15:23:30.175Z,1.67
2023-03-13T15:25:26.707Z,1.10
2023-03-13T15:27:24.751Z,1.00
2023-03-13T15:29:20.959Z,1.48
2023-03-13T15:31:16.777Z,1.30
2023-03-13T15:33:18.725Z,1.30
2023-03-13T15:35:25.847Z,1.08
2023-03-13T15:37:21.548Z,1.00
2023-03-13T15:39:19.454Z,1.45
2023-03-13T15:41:15.054Z,1.20
2023-03-13T15:43:10.732Z,1.30
2023-03-13T15:45:06.366Z,1.07
2023-03-13T15:47:01.673Z,1.10
2023-03-13T15:48:59.461Z,1.20
2023-03-13T15:50:59.384Z,1.10
2023-03-13T15:52:54.642Z,1.08
2023-03-13T15:54:49.675Z,1.10
2023-03-13T15:56:45.029Z,0.93
2023-03-13T15:58:40.330Z,1.40
2023-03-13T16:00:35.685Z,1.40
2023-03-13T16:02:30.595Z,1.17
2023-03-13T16:04:28.556Z,1.17
2023-03-13T16:06:31.044Z,1.40
2023-03-13T16:08:36.549Z,1.08
2023-03-13T16:10:34.616Z,1.15
2023-03-13T16:12:29.841Z,1.20
2023-03-13T16:14:24.852Z,1.30
2023-03-13T16:16:23.095Z,1.20
2023-03-13T16:18:22.598Z,1.50
2023-03-13T16:20:23.690Z,1.30
2023-03-13T16:22:18.876Z,1.33
2023-03-13T16:24:14.536Z,1.10
2023-03-13T16:26:18.118Z,1.43
2023-03-13T16:28:14.844Z,0.80
2023-03-13T16:30:18.549Z,1.20
2023-03-13T16:32:15.596Z,1.30
2023-03-13T16:34:11.315Z,1.23
2023-03-13T16:36:17.942Z,1.30
2023-03-13T16:38:14.412Z,1.30
2023-03-13T16:40:18.141Z,1.15
2023-03-13T16:42:13.524Z,1.05
2023-03-13T16:44:09.189Z,1.23
2023-03-13T16:46:12.291Z,1.17
2023-03-13T16:48:07.983Z,1.10
2023-03-13T16:50:03.245Z,1.20
2023-03-13T16:52:01.305Z,1.30
2023-03-13T16:53:59.774Z,1.50
2023-03-13T16:55:55.785Z,1.27
2023-03-13T16:57:50.768Z,1.40
2023-03-13T16:59:46.238Z,1.40
2023-03-13T17:01:41.223Z,1.13
2023-03-13T17:03:36.579Z,1.33
2023-03-13T17:05:31.795Z,1.10
2023-03-13T17:07:30.139Z,1.40
2023-03-13T17:09:25.184Z,1.20
2023-03-13T17:11:22.185Z,1.40
2023-03-13T17:13:19.515Z,1.20
2023-03-13T17:15:14.850Z,1.27
2023-03-13T17:17:14.828Z,1.40
2023-03-13T17:19:10.370Z,1.20
2023-03-13T17:21:05.307Z,1.37
2023-03-13T17:23:03.699Z,0.90
2023-03-13T17:24:58.657Z,1.70
2023-03-13T17:26:53.982Z,1.13
2023-03-13T17:28:50.300Z,1.30
2023-03-13T17:30:45.566Z,1.30
2023-03-13T17:32:40.750Z,1.20
2023-03-13T17:34:36.149Z,1.23
2023-03-13T17:36:31.400Z,1.77
2023-03-13T17:38:29.312Z,0.80
2023-03-13T17:40:26.731Z,1.20
2023-03-13T17:42:22.425Z,1.07
2023-03-13T17:44:17.675Z,1.30
2023-03-13T17:46:23.418Z,1.50
2023-03-13T17:48:18.776Z,1.63
2023-03-13T17:50:19.592Z,1.67
2023-03-13T17:52:18.379Z,1.50
2023-03-13T17:54:16.860Z,1.53
2023-03-13T17:56:17.056Z,1.40
2023-03-13T17:58:12.625Z,1.40
2023-03-13T18:00:21.820Z,3.27
2023-03-13T18:02:19.304Z,1.37
2023-03-13T18:04:14.553Z,1.20
2023-03-13T18:06:19.704Z,1.40
2023-03-13T18:08:14.769Z,1.50
2023-03-13T18:10:21.859Z,1.53
2023-03-13T18:12:17.819Z,1.30
2023-03-13T18:14:13.915Z,0.90
2023-03-13T18:16:19.066Z,1.43
2023-03-13T18:18:19.305Z,1.07
2023-03-13T18:20:19.449Z,0.90
2023-03-13T18:22:17.403Z,1.50
2023-03-13T18:24:12.639Z,0.90
2023-03-13T18:26:23.130Z,1.50
2023-03-13T18:28:18.053Z,1.37
2023-03-13T18:30:25.009Z,1.77
2023-03-13T18:32:21.505Z,1.40
2023-03-13T18:34:17.023Z,1.50
2023-03-13T18:36:19.777Z,1.60
2023-03-13T18:38:15.788Z,1.50
2023-03-13T18:40:18.960Z,1.77
2023-03-13T18:42:17.118Z,1.50
2023-03-13T18:44:15.635Z,2.10
2023-03-13T18:46:24.249Z,1.40
2023-03-13T18:48:19.415Z,1.40
2023-03-13T18:50:23.698Z,1.40
2023-03-13T18:52:18.893Z,1.40
2023-03-13T18:54:14.241Z,1.10
2023-03-13T18:56:18.271Z,1.47
2023-03-13T18:58:16.282Z,1.60
2023-03-13T19:00:18.780Z,1.53
2023-03-13T19:02:16.771Z,1.50
2023-03-13T19:04:11.917Z,1.50
2023-03-13T19:06:18.159Z,1.63
2023-03-13T19:08:13.484Z,1.60
2023-03-13T19:10:20.618Z,1.80
2023-03-13T19:12:16.045Z,1.80
2023-03-13T19:14:14.434Z,1.73
2023-03-13T19:16:16.523Z,2.43
2023-03-13T19:18:14.384Z,1.87
2023-03-13T19:20:13.776Z,1.50
2023-03-13T19:22:09.137Z,1.63
2023-03-13T19:24:04.492Z,1.50
2023-03-13T19:25:59.808Z,1.60
2023-03-13T19:27:54.780Z,1.23
2023-03-13T19:29:52.895Z,1.53
2023-03-13T19:31:48.428Z,1.60
2023-03-13T19:33:43.842Z,1.70
2023-03-13T19:35:38.759Z,2.00
2023-03-13T19:37:34.023Z,2.10
2023-03-13T19:39:29.500Z,1.70
2023-03-13T19:41:24.758Z,2.03
2023-03-13T19:43:19.723Z,1.60
2023-03-13T19:45:21.825Z,1.90
2023-03-13T19:47:18.337Z,2.00
2023-03-13T19:49:14.853Z,2.10
2023-03-13T19:51:10.249Z,2.50
2023-03-13T19:53:05.535Z,1.60
2023-03-13T19:55:05.056Z,1.53
2023-03-13T19:57:00.883Z,1.40
2023-03-13T19:59:00.691Z,1.97
2023-03-13T20:01:00.739Z,1.33
2023-03-13T20:03:03.417Z,2.20
2023-03-13T20:04:59.068Z,2.03
2023-03-13T20:06:54.338Z,2.60
2023-03-13T20:08:50.881Z,2.00
2023-03-13T20:10:46.164Z,2.30
2023-03-13T20:12:41.965Z,2.03
2023-03-13T20:14:37.681Z,2.10
2023-03-13T20:16:36.312Z,2.30
2023-03-13T20:18:31.651Z,2.30
2023-03-13T20:20:26.971Z,2.00
2023-03-13T20:22:21.954Z,1.83
2023-03-13T20:24:17.955Z,2.60
2023-03-13T20:26:15.577Z,2.20
2023-03-13T20:28:10.821Z,1.90
2023-03-13T20:30:07.006Z,1.43
2023-03-13T20:32:05.954Z,2.20
2023-03-13T20:34:01.959Z,1.93
2023-03-13T20:36:00.267Z,2.27
2023-03-13T20:37:57.396Z,1.70
2023-03-13T20:39:52.672Z,1.93
2023-03-13T20:41:47.688Z,2.20
2023-03-13T20:43:43.079Z,2.00
2023-03-13T20:45:38.344Z,2.90
2023-03-13T20:47:36.250Z,4.13
2023-03-13T20:49:31.245Z,2.53
2023-03-13T20:51:26.453Z,1.40
2023-03-13T20:53:21.817Z,1.60
2023-03-13T20:55:17.236Z,1.50
2023-03-13T20:57:12.804Z,1.80
2023-03-13T20:59:08.138Z,1.87
2023-03-13T21:01:04.550Z,2.00
2023-03-13T21:03:02.564Z,1.27
2023-03-13T21:04:57.630Z,2.00
2023-03-13T21:06:53.030Z,1.27
2023-03-13T21:08:48.434Z,1.20
2023-03-13T21:10:44.684Z,1.77
2023-03-13T21:12:39.663Z,1.77
2023-03-13T21:14:37.301Z,1.50
2023-03-13T21:16:32.318Z,1.43
2023-03-13T21:18:30.180Z,1.77
2023-03-13T21:20:26.196Z,1.70
2023-03-13T21:22:21.858Z,1.60
2023-03-13T21:24:16.819Z,1.53
2023-03-13T21:26:12.759Z,1.50
2023-03-13T21:28:10.801Z,1.37
2023-03-13T21:30:10.373Z,1.57
2023-03-13T21:32:05.428Z,1.57
2023-03-13T21:34:03.301Z,1.17
2023-03-13T21:35:58.276Z,1.30
2023-03-13T21:37:53.607Z,1.03
2023-03-13T21:39:52.384Z,0.90
2023-03-13T21:41:47.651Z,1.50
2023-03-13T21:43:43.994Z,1.00
2023-03-13T21:45:40.133Z,1.60
2023-03-13T21:47:37.079Z,1.50
2023-03-13T21:49:35.125Z,1.10
2023-03-13T21:51:30.821Z,0.77
2023-03-13T21:53:26.145Z,1.07
2023-03-13T21:55:21.524Z,1.30
2023-03-13T21:57:17.124Z,0.83
2023-03-13T21:59:12.232Z,1.30
2023-03-13T22:01:08.073Z,1.00
2023-03-13T22:03:03.149Z,1.00
2023-03-13T22:05:01.093Z,1.00
2023-03-13T22:06:56.414Z,0.97
2023-03-13T22:08:52.581Z,1.13
2023-03-13T22:10:52.207Z,1.20
2023-03-13T22:12:47.522Z,0.90
2023-03-13T22:14:42.494Z,1.13
2023-03-13T22:16:37.816Z,0.90
2023-03-13T22:18:33.099Z,0.90
2023-03-13T22:20:31.265Z,1.87
2023-03-13T22:22:26.619Z,0.60
2023-03-13T22:24:22.178Z,1.00
2023-03-13T22:26:17.812Z,0.80
2023-03-13T22:28:14.010Z,0.90
2023-03-13T22:30:10.852Z,1.00
2023-03-13T22:32:07.285Z,1.00
2023-03-13T22:34:02.646Z,1.17
2023-03-13T22:36:01.352Z,0.73
2023-03-13T22:37:56.672Z,0.90
2023-03-13T22:39:54.005Z,1.00
2023-03-13T22:41:49.421Z,1.00
2023-03-13T22:43:45.084Z,0.83
2023-03-13T22:45:40.566Z,1.03
2023-03-13T22:47:36.086Z,0.77
2023-03-13T22:49:31.115Z,0.90
2023-03-13T22:51:28.932Z,1.03
2023-03-13T22:53:23.887Z,0.80
2023-03-13T22:55:19.207Z,0.80
2023-03-13T22:57:14.142Z,1.00
2023-03-13T22:59:09.442Z,1.13
2023-03-13T23:01:08.118Z,1.20
2023-03-13T23:03:03.680Z,0.73
2023-03-13T23:05:01.095Z,1.20
2023-03-13T23:06:59.001Z,1.00
2023-03-13T23:08:54.245Z,0.90
2023-03-13T23:10:50.604Z,1.00
2023-03-13T23:12:45.674Z,1.20
2023-03-13T23:14:40.992Z,0.87
2023-03-13T23:16:36.199Z,0.80
2023-03-13T23:18:31.482Z,0.80
2023-03-13T23:20:26.429Z,1.00
2023-03-13T23:22:29.032Z,0.70
2023-03-13T23:24:24.336Z,1.13
2023-03-13T23:26:21.030Z,0.90
2023-03-13T23:28:17.348Z,1.03
2023-03-13T23:30:18.060Z,0.97
2023-03-13T23:32:16.691Z,0.80
2023-03-13T23:34:22.074Z,0.90
2023-03-13T23:36:20.970Z,0.83
2023-03-13T23:38:24.379Z,1.00
2023-03-13T23:40:20.966Z,1.00
2023-03-13T23:42:17.252Z,0.97
2023-03-13T23:44:12.553Z,1.00
2023-03-13T23:46:09.697Z,0.90
2023-03-13T23:48:05.439Z,1.00
2023-03-13T23:50:00.838Z,0.90
2023-03-13T23:51:56.710Z,1.00
2023-03-13T23:53:56.713Z,0.90
2023-03-13T23:56:00.776Z,1.00
2023-03-13T23:57:56.318Z,0.90
2023-03-13T23:59:52.607Z,1.43
